sensor_id;sensor_type;location;lat;lon;timestamp;pressure;altitude;pressure_sealevel;temperature;humidity
44734;BME280;30462;52.446;-1.930;2023-03-22T00:00:19;98483.98828;;;;
44734;BME280;30462;52.446;-1.930;2023-03-22T00:01:18;98482.53516;;;;
44734;BME280;30462;52.446;-1.930;2023-03-22T00:02:18;98477.14063;;;;
44734;BME280;30462;52.446;-1.930;2023-03-22T00:03:18;98480.82813;;;;
44734;BME280;30462;52.446;-1.930;2023-03-22T00:04:18;98491.62109;;;;
44734;BME280;30462;52.446;-1.930;2023-03-22T00:05:18;98474.10938;;;;
44734;BME280;30462;52.446;-1.930;2023-03-22T00:06:18;98478.44531;;;;
44734;BME280;30462;52.446;-1.930;2023-03-22T00:07:18;98458.35547;;;;
44734;BME280;30462;52.446;-1.930;2023-03-22T00:08:18;98471.91797;;;;
44734;BME280;30462;52.446;-1.930;2023-03-22T00:09:18;98462.5625;;;;
44734;BME280;30462;52.446;-1.930;2023-03-22T00:10:18;98460.51563;;;;
44734;BME280;30462;52.446;-1.930;2023-03-22T00:11:18;98456.71484;;;;
44734;BME280;30462;52.446;-1.930;2023-03-22T00:12:18;98462.41797;;;;
44734;BME280;30462;52.446;-1.930;2023-03-22T00:13:17;98456.75;;;;
44734;BME280;30462;52.446;-1.930;2023-03-22T00:14:18;98464.32031;;;;
44734;BME280;30462;52.446;-1.930;2023-03-22T00:15:18;98462.55078;;;;
44734;BME280;30462;52.446;-1.930;2023-03-22T00:16:18;98468.5625;;;;
44734;BME280;30462;52.446;-1.930;2023-03-22T00:17:18;98453.98438;;;;
44734;BME280;30462;52.446;-1.930;2023-03-22T00:18:18;98451.42969;;;;
44734;BME280;30462;52.446;-1.930;2023-03-22T00:19:18;98456.96484;;;;
44734;BME280;30462;52.446;-1.930;2023-03-22T00:20:18;98457.61719;;;;
44734;BME280;30462;52.446;-1.930;2023-03-22T00:21:19;98444.25;;;;
44734;BME280;30462;52.446;-1.930;2023-03-22T00:22:18;98434.89063;;;;
44734;BME280;30462;52.446;-1.930;2023-03-22T00:23:18;98434.33984;;;;
44734;BME280;30462;52.446;-1.930;2023-03-22T00:24:18;98426.30859;;;;
44734;BME280;30462;52.446;-1.930;2023-03-22T00:25:19;98412.49219;;;;
44734;BME280;30462;52.446;-1.930;2023-03-22T00:26:18;98431.83594;;;;
44734;BME280;30462;52.446;-1.930;2023-03-22T00:27:17;98425.875;;;;
44734;BME280;30462;52.446;-1.930;2023-03-22T00:28:18;98423.07031;;;;
44734;BME280;30462;52.446;-1.930;2023-03-22T00:29:18;98411.54297;;;;
44734;BME280;30462;52.446;-1.930;2023-03-22T00:30:18;98425.53906;;;;
44734;BME280;30462;52.446;-1.930;2023-03-22T00:31:18;98413.67578;;;;
44734;BME280;30462;52.446;-1.930;2023-03-22T00:32:18;98417.20703;;;;
44734;BME280;30462;52.446;-1.930;2023-03-22T00:33:18;98404.19141;;;;
44734;BME280;30462;52.446;-1.930;2023-03-22T00:34:18;98395.50781;;;;
44734;BME280;30462;52.446;-1.930;2023-03-22T00:35:18;98402.67578;;;;
44734;BME280;30462;52.446;-1.930;2023-03-22T00:36:18;98386.84766;;;;
44734;BME280;30462;52.446;-1.930;2023-03-22T00:37:18;98389.30078;;;;
44734;BME280;30462;52.446;-1.930;2023-03-22T00:38:19;98388.26172;;;;
44734;BME280;30462;52.446;-1.930;2023-03-22T00:39:18;98384.58984;;;;
44734;BME280;30462;52.446;-1.930;2023-03-22T00:40:18;98384.74609;;;;
44734;BME280;30462;52.446;-1.930;2023-03-22T00:41:18;98384.41406;;;;
44734;BME280;30462;52.446;-1.930;2023-03-22T00:42:18;98392.69141;;;;
44734;BME280;30462;52.446;-1.930;2023-03-22T00:43:18;98391.67578;;;;
44734;BME280;30462;52.446;-1.930;2023-03-22T00:44:18;98386.04688;;;;
44734;BME280;30462;52.446;-1.930;2023-03-22T00:45:18;98384.67969;;;;
44734;BME280;30462;52.446;-1.930;2023-03-22T00:46:18;98391.97656;;;;
44734;BME280;30462;52.446;-1.930;2023-03-22T00:47:18;98383.75781;;;;
44734;BME280;30462;52.446;-1.930;2023-03-22T00:48:17;98389.26953;;;;
44734;BME280;30462;52.446;-1.930;2023-03-22T00:49:18;98376.47656;;;;
44734;BME280;30462;52.446;-1.930;2023-03-22T00:50:18;98380.64453;;;;
44734;BME280;30462;52.446;-1.930;2023-03-22T00:51:18;98380.63672;;;;
44734;BME280;30462;52.446;-1.930;2023-03-22T00:52:18;98373.16797;;;;
44734;BME280;30462;52.446;-1.930;2023-03-22T00:53:18;98385.81641;;;;
44734;BME280;30462;52.446;-1.930;2023-03-22T00:54:17;98382.91406;;;;
44734;BME280;30462;52.446;-1.930;2023-03-22T00:55:18;98380.21484;;;;
44734;BME280;30462;52.446;-1.930;2023-03-22T00:56:18;98382.49609;;;;
44734;BME280;30462;52.446;-1.930;2023-03-22T00:57:18;98372.75391;;;;
44734;BME280;30462;52.446;-1.930;2023-03-22T00:58:18;98372.23828;;;;
44734;BME280;30462;52.446;-1.930;2023-03-22T00:59:18;98376.73438;;;;
44734;BME280;30462;52.446;-1.930;2023-03-22T01:00:18;98377.88281;;;;
44734;BME280;30462;52.446;-1.930;2023-03-22T01:01:17;98365.50391;;;;
44734;BME280;30462;52.446;-1.930;2023-03-22T01:02:18;98380.86328;;;;
44734;BME280;30462;52.446;-1.930;2023-03-22T01:03:18;98356.82031;;;;
44734;BME280;30462;52.446;-1.930;2023-03-22T01:04:18;98362.71875;;;;
44734;BME280;30462;52.446;-1.930;2023-03-22T01:05:18;98354.51172;;;;
44734;BME280;30462;52.446;-1.930;2023-03-22T01:06:18;98357.60547;;;;
44734;BME280;30462;52.446;-1.930;2023-03-22T01:07:18;98352.60156;;;;
44734;BME280;30462;52.446;-1.930;2023-03-22T01:08:18;98349.81641;;;;
44734;BME280;30462;52.446;-1.930;2023-03-22T01:09:18;98348.24219;;;;
44734;BME280;30462;52.446;-1.930;2023-03-22T01:10:18;98344.92188;;;;
44734;BME280;30462;52.446;-1.930;2023-03-22T01:11:18;98334.47656;;;;
44734;BME280;30462;52.446;-1.930;2023-03-22T01:12:18;98333.88281;;;;
44734;BME280;30462;52.446;-1.930;2023-03-22T01:13:17;98331.76953;;;;
44734;BME280;30462;52.446;-1.930;2023-03-22T01:14:17;98344.58203;;;;
44734;BME280;30462;52.446;-1.930;2023-03-22T01:15:18;98336.87891;;;;
44734;BME280;30462;52.446;-1.930;2023-03-22T01:16:19;98338.94922;;;;
44734;BME280;30462;52.446;-1.930;2023-03-22T01:17:18;98344.13281;;;;
44734;BME280;30462;52.446;-1.930;2023-03-22T01:18:18;98341.21094;;;;
44734;BME280;30462;52.446;-1.930;2023-03-22T01:19:18;98331.20313;;;;
44734;BME280;30462;52.446;-1.930;2023-03-22T01:20:18;98329.38672;;;;
44734;BME280;30462;52.446;-1.930;2023-03-22T01:21:18;98327.86328;;;;
44734;BME280;30462;52.446;-1.930;2023-03-22T01:22:18;98326.16797;;;;
44734;BME280;30462;52.446;-1.930;2023-03-22T01:23:18;98327.0625;;;;
44734;BME280;30462;52.446;-1.930;2023-03-22T01:24:18;98310.69531;;;;
44734;BME280;30462;52.446;-1.930;2023-03-22T01:25:18;98309.85938;;;;
44734;BME280;30462;52.446;-1.930;2023-03-22T01:26:18;98320.57813;;;;
44734;BME280;30462;52.446;-1.930;2023-03-22T01:27:18;98318.23047;;;;
44734;BME280;30462;52.446;-1.930;2023-03-22T01:28:18;98299.38672;;;;
44734;BME280;30462;52.446;-1.930;2023-03-22T01:29:18;98304.49609;;;;
44734;BME280;30462;52.446;-1.930;2023-03-22T01:30:18;98320.25391;;;;
44734;BME280;30462;52.446;-1.930;2023-03-22T01:31:18;98319.97266;;;;
44734;BME280;30462;52.446;-1.930;2023-03-22T01:32:18;98300.22266;;;;
44734;BME280;30462;52.446;-1.930;2023-03-22T01:33:18;98304.8125;;;;
44734;BME280;30462;52.446;-1.930;2023-03-22T01:34:18;98307.34375;;;;
44734;BME280;30462;52.446;-1.930;2023-03-22T01:35:18;98310.41016;;;;
44734;BME280;30462;52.446;-1.930;2023-03-22T01:36:18;98281.72656;;;;
44734;BME280;30462;52.446;-1.930;2023-03-22T01:37:18;98302.54688;;;;
44734;BME280;30462;52.446;-1.930;2023-03-22T01:38:18;98287.53516;;;;
44734;BME280;30462;52.446;-1.930;2023-03-22T01:39:18;98278.39063;;;;
44734;BME280;30462;52.446;-1.930;2023-03-22T01:40:18;98283.46875;;;;
44734;BME280;30462;52.446;-1.930;2023-03-22T01:41:18;98287.86328;;;;
44734;BME280;30462;52.446;-1.930;2023-03-22T01:42:18;98281.44141;;;;
44734;BME280;30462;52.446;-1.930;2023-03-22T01:43:18;98278.16797;;;;
44734;BME280;30462;52.446;-1.930;2023-03-22T01:44:18;98282.64844;;;;
44734;BME280;30462;52.446;-1.930;2023-03-22T01:46:18;98277.79297;;;;
44734;BME280;30462;52.446;-1.930;2023-03-22T01:47:17;98271;;;;
44734;BME280;30462;52.446;-1.930;2023-03-22T01:48:20;98271.45703;;;;
44734;BME280;30462;52.446;-1.930;2023-03-22T01:49:19;98277.37109;;;;
44734;BME280;30462;52.446;-1.930;2023-03-22T01:50:18;98269.62891;;;;
44734;BME280;30462;52.446;-1.930;2023-03-22T01:51:19;98274.80078;;;;
44734;BME280;30462;52.446;-1.930;2023-03-22T01:52:18;98266.05078;;;;
44734;BME280;30462;52.446;-1.930;2023-03-22T01:53:18;98266.48828;;;;
44734;BME280;30462;52.446;-1.930;2023-03-22T01:54:19;98262.52344;;;;
44734;BME280;30462;52.446;-1.930;2023-03-22T01:55:18;98248.375;;;;
44734;BME280;30462;52.446;-1.930;2023-03-22T01:56:17;98254.85547;;;;
44734;BME280;30462;52.446;-1.930;2023-03-22T01:57:18;98257.76953;;;;
44734;BME280;30462;52.446;-1.930;2023-03-22T01:58:18;98235.68359;;;;
44734;BME280;30462;52.446;-1.930;2023-03-22T01:59:18;98256.47266;;;;
44734;BME280;30462;52.446;-1.930;2023-03-22T02:00:18;98250.09766;;;;
44734;BME280;30462;52.446;-1.930;2023-03-22T02:01:18;98252.67969;;;;
44734;BME280;30462;52.446;-1.930;2023-03-22T02:02:18;98251.55859;;;;
44734;BME280;30462;52.446;-1.930;2023-03-22T02:03:19;98240.19531;;;;
44734;BME280;30462;52.446;-1.930;2023-03-22T02:04:19;98248.88281;;;;
44734;BME280;30462;52.446;-1.930;2023-03-22T02:05:18;98254.37891;;;;
44734;BME280;30462;52.446;-1.930;2023-03-22T02:06:18;98244.38281;;;;
44734;BME280;30462;52.446;-1.930;2023-03-22T02:07:18;98249.42188;;;;
44734;BME280;30462;52.446;-1.930;2023-03-22T02:08:18;98243.31641;;;;
44734;BME280;30462;52.446;-1.930;2023-03-22T02:09:18;98226.54688;;;;
44734;BME280;30462;52.446;-1.930;2023-03-22T02:10:19;98250.39453;;;;
44734;BME280;30462;52.446;-1.930;2023-03-22T02:11:20;98253.69922;;;;
44734;BME280;30462;52.446;-1.930;2023-03-22T02:12:28;98243.86328;;;;
44734;BME280;30462;52.446;-1.930;2023-03-22T02:15:18;98241.46094;;;;
44734;BME280;30462;52.446;-1.930;2023-03-22T02:16:25;98243.92188;;;;
44734;BME280;30462;52.446;-1.930;2023-03-22T02:29:23;98224.05078;;;;
44734;BME280;30462;52.446;-1.930;2023-03-22T02:40:19;98202.07031;;;;
44734;BME280;30462;52.446;-1.930;2023-03-22T02:41:20;98210.98438;;;;
44734;BME280;30462;52.446;-1.930;2023-03-22T02:43:20;98207.50781;;;;
44734;BME280;30462;52.446;-1.930;2023-03-22T02:45:22;98207.93359;;;;
44734;BME280;30462;52.446;-1.930;2023-03-22T02:46:21;98215.72656;;;;
44734;BME280;30462;52.446;-1.930;2023-03-22T02:47:19;98213.32422;;;;
44734;BME280;30462;52.446;-1.930;2023-03-22T02:48:20;98214.76953;;;;
44734;BME280;30462;52.446;-1.930;2023-03-22T02:49:19;98210.57813;;;;
44734;BME280;30462;52.446;-1.930;2023-03-22T02:50:19;98208.16797;;;;
44734;BME280;30462;52.446;-1.930;2023-03-22T02:51:19;98204.67188;;;;
44734;BME280;30462;52.446;-1.930;2023-03-22T02:52:19;98220.41406;;;;
44734;BME280;30462;52.446;-1.930;2023-03-22T02:53:19;98206.02344;;;;
44734;BME280;30462;52.446;-1.930;2023-03-22T02:54:21;98213.49219;;;;
44734;BME280;30462;52.446;-1.930;2023-03-22T02:55:19;98203.38672;;;;
44734;BME280;30462;52.446;-1.930;2023-03-22T02:56:19;98205.42188;;;;
44734;BME280;30462;52.446;-1.930;2023-03-22T02:57:19;98206.33594;;;;
44734;BME280;30462;52.446;-1.930;2023-03-22T02:58:21;98208.66406;;;;
44734;BME280;30462;52.446;-1.930;2023-03-22T02:59:18;98216.33203;;;;
44734;BME280;30462;52.446;-1.930;2023-03-22T03:00:18;98209.23438;;;;
44734;BME280;30462;52.446;-1.930;2023-03-22T03:01:19;98211.29297;;;;
44734;BME280;30462;52.446;-1.930;2023-03-22T03:02:18;98203.22656;;;;
44734;BME280;30462;52.446;-1.930;2023-03-22T03:03:18;98199.00781;;;;
44734;BME280;30462;52.446;-1.930;2023-03-22T03:04:19;98200.65234;;;;
44734;BME280;30462;52.446;-1.930;2023-03-22T03:05:18;98197.28125;;;;
44734;BME280;30462;52.446;-1.930;2023-03-22T03:06:18;98206.15625;;;;
44734;BME280;30462;52.446;-1.930;2023-03-22T03:07:20;98209.41406;;;;
44734;BME280;30462;52.446;-1.930;2023-03-22T03:08:18;98199.92969;;;;
44734;BME280;30462;52.446;-1.930;2023-03-22T03:09:18;98196.13672;;;;
44734;BME280;30462;52.446;-1.930;2023-03-22T03:10:18;98199.19531;;;;
44734;BME280;30462;52.446;-1.930;2023-03-22T03:11:18;98196.80078;;;;
44734;BME280;30462;52.446;-1.930;2023-03-22T03:12:19;98195.75781;;;;
44734;BME280;30462;52.446;-1.930;2023-03-22T03:13:18;98196.72266;;;;
44734;BME280;30462;52.446;-1.930;2023-03-22T03:14:19;98181.74609;;;;
44734;BME280;30462;52.446;-1.930;2023-03-22T03:15:19;98191.07031;;;;
44734;BME280;30462;52.446;-1.930;2023-03-22T03:16:19;98183.53125;;;;
44734;BME280;30462;52.446;-1.930;2023-03-22T03:19:19;98197.66406;;;;
44734;BME280;30462;52.446;-1.930;2023-03-22T03:20:20;98179.6875;;;;
44734;BME280;30462;52.446;-1.930;2023-03-22T03:21:21;98181.55078;;;;
44734;BME280;30462;52.446;-1.930;2023-03-22T03:24:24;98177.05078;;;;
44734;BME280;30462;52.446;-1.930;2023-03-22T03:25:22;98179.78125;;;;
44734;BME280;30462;52.446;-1.930;2023-03-22T03:26:19;98182.91406;;;;
44734;BME280;30462;52.446;-1.930;2023-03-22T03:27:21;98173.875;;;;
44734;BME280;30462;52.446;-1.930;2023-03-22T03:28:21;98165.07422;;;;
44734;BME280;30462;52.446;-1.930;2023-03-22T03:29:19;98147.20703;;;;
44734;BME280;30462;52.446;-1.930;2023-03-22T03:30:19;98158.53125;;;;
44734;BME280;30462;52.446;-1.930;2023-03-22T03:32:19;98151.89453;;;;
44734;BME280;30462;52.446;-1.930;2023-03-22T03:33:18;98145.07031;;;;
44734;BME280;30462;52.446;-1.930;2023-03-22T03:34:18;98141.21094;;;;
44734;BME280;30462;52.446;-1.930;2023-03-22T03:35:19;98136.76172;;;;
44734;BME280;30462;52.446;-1.930;2023-03-22T03:36:18;98135.42969;;;;
44734;BME280;30462;52.446;-1.930;2023-03-22T03:37:18;98132.13281;;;;
44734;BME280;30462;52.446;-1.930;2023-03-22T03:38:18;98133.73047;;;;
44734;BME280;30462;52.446;-1.930;2023-03-22T03:39:18;98118.90625;;;;
44734;BME280;30462;52.446;-1.930;2023-03-22T03:40:19;98128.55469;;;;
44734;BME280;30462;52.446;-1.930;2023-03-22T03:41:19;98126.14844;;;;
44734;BME280;30462;52.446;-1.930;2023-03-22T03:42:18;98132.61328;;;;
44734;BME280;30462;52.446;-1.930;2023-03-22T03:43:18;98132.40625;;;;
44734;BME280;30462;52.446;-1.930;2023-03-22T03:44:19;98134.51563;;;;
44734;BME280;30462;52.446;-1.930;2023-03-22T03:45:18;98115.16406;;;;
44734;BME280;30462;52.446;-1.930;2023-03-22T03:46:18;98109.86719;;;;
44734;BME280;30462;52.446;-1.930;2023-03-22T03:47:17;98112.15234;;;;
44734;BME280;30462;52.446;-1.930;2023-03-22T03:48:19;98111.60547;;;;
44734;BME280;30462;52.446;-1.930;2023-03-22T03:49:18;98118.15234;;;;
44734;BME280;30462;52.446;-1.930;2023-03-22T03:50:18;98118.875;;;;
44734;BME280;30462;52.446;-1.930;2023-03-22T03:51:18;98120.69531;;;;
44734;BME280;30462;52.446;-1.930;2023-03-22T03:52:18;98109.375;;;;
44734;BME280;30462;52.446;-1.930;2023-03-22T03:53:18;98119.22656;;;;
44734;BME280;30462;52.446;-1.930;2023-03-22T03:54:18;98117.66797;;;;
44734;BME280;30462;52.446;-1.930;2023-03-22T03:55:18;98125.3125;;;;
44734;BME280;30462;52.446;-1.930;2023-03-22T03:56:18;98130.71484;;;;
44734;BME280;30462;52.446;-1.930;2023-03-22T03:57:18;98107.86719;;;;
44734;BME280;30462;52.446;-1.930;2023-03-22T03:58:18;98124.71875;;;;
44734;BME280;30462;52.446;-1.930;2023-03-22T03:59:18;98116.07031;;;;
44734;BME280;30462;52.446;-1.930;2023-03-22T04:00:18;98132.51172;;;;
44734;BME280;30462;52.446;-1.930;2023-03-22T04:01:18;98120.16406;;;;
44734;BME280;30462;52.446;-1.930;2023-03-22T04:02:18;98117.15234;;;;
44734;BME280;30462;52.446;-1.930;2023-03-22T04:03:18;98129.01172;;;;
44734;BME280;30462;52.446;-1.930;2023-03-22T04:04:18;98131.33203;;;;
44734;BME280;30462;52.446;-1.930;2023-03-22T04:05:18;98135.17969;;;;
44734;BME280;30462;52.446;-1.930;2023-03-22T04:06:18;98136.14063;;;;
44734;BME280;30462;52.446;-1.930;2023-03-22T04:07:18;98142.24219;;;;
44734;BME280;30462;52.446;-1.930;2023-03-22T04:08:17;98145.65625;;;;
44734;BME280;30462;52.446;-1.930;2023-03-22T04:09:18;98145.3125;;;;
44734;BME280;30462;52.446;-1.930;2023-03-22T04:10:18;98147.36719;;;;
44734;BME280;30462;52.446;-1.930;2023-03-22T04:11:18;98144.71094;;;;
44734;BME280;30462;52.446;-1.930;2023-03-22T04:12:18;98148.21484;;;;
44734;BME280;30462;52.446;-1.930;2023-03-22T04:13:18;98145.59375;;;;
44734;BME280;30462;52.446;-1.930;2023-03-22T04:14:18;98142.01953;;;;
44734;BME280;30462;52.446;-1.930;2023-03-22T04:15:18;98144.92188;;;;
44734;BME280;30462;52.446;-1.930;2023-03-22T04:16:18;98137.69922;;;;
44734;BME280;30462;52.446;-1.930;2023-03-22T04:17:18;98146.67969;;;;
44734;BME280;30462;52.446;-1.930;2023-03-22T04:18:18;98151.05078;;;;
44734;BME280;30462;52.446;-1.930;2023-03-22T04:19:18;98147.55469;;;;
44734;BME280;30462;52.446;-1.930;2023-03-22T04:20:18;98137.78125;;;;
44734;BME280;30462;52.446;-1.930;2023-03-22T04:21:18;98138.11719;;;;
44734;BME280;30462;52.446;-1.930;2023-03-22T04:22:18;98151.27344;;;;
44734;BME280;30462;52.446;-1.930;2023-03-22T04:23:18;98139.39453;;;;
44734;BME280;30462;52.446;-1.930;2023-03-22T04:24:18;98149.9375;;;;
44734;BME280;30462;52.446;-1.930;2023-03-22T04:25:18;98150.5;;;;
44734;BME280;30462;52.446;-1.930;2023-03-22T04:26:18;98148.39453;;;;
44734;BME280;30462;52.446;-1.930;2023-03-22T04:27:18;98161.51953;;;;
44734;BME280;30462;52.446;-1.930;2023-03-22T04:28:18;98149.625;;;;
44734;BME280;30462;52.446;-1.930;2023-03-22T04:29:18;98157.5;;;;
44734;BME280;30462;52.446;-1.930;2023-03-22T04:30:18;98158.24219;;;;
44734;BME280;30462;52.446;-1.930;2023-03-22T04:31:18;98165.71094;;;;
44734;BME280;30462;52.446;-1.930;2023-03-22T04:32:18;98171.125;;;;
44734;BME280;30462;52.446;-1.930;2023-03-22T04:33:18;98176.32422;;;;
44734;BME280;30462;52.446;-1.930;2023-03-22T04:34:18;98166.38281;;;;
44734;BME280;30462;52.446;-1.930;2023-03-22T04:35:18;98172.125;;;;
44734;BME280;30462;52.446;-1.930;2023-03-22T04:36:18;98159.28516;;;;
44734;BME280;30462;52.446;-1.930;2023-03-22T04:37:18;98169.00391;;;;
44734;BME280;30462;52.446;-1.930;2023-03-22T04:38:18;98163.42578;;;;
44734;BME280;30462;52.446;-1.930;2023-03-22T04:39:18;98176.75391;;;;
44734;BME280;30462;52.446;-1.930;2023-03-22T04:40:18;98182.88281;;;;
44734;BME280;30462;52.446;-1.930;2023-03-22T04:41:18;98177.18359;;;;
44734;BME280;30462;52.446;-1.930;2023-03-22T04:42:18;98170.11328;;;;
44734;BME280;30462;52.446;-1.930;2023-03-22T04:43:18;98164.42188;;;;
44734;BME280;30462;52.446;-1.930;2023-03-22T04:44:18;98164.76953;;;;
44734;BME280;30462;52.446;-1.930;2023-03-22T04:45:18;98173.11328;;;;
44734;BME280;30462;52.446;-1.930;2023-03-22T04:46:18;98180.06641;;;;
44734;BME280;30462;52.446;-1.930;2023-03-22T04:47:18;98184.77344;;;;
44734;BME280;30462;52.446;-1.930;2023-03-22T04:48:18;98179.4375;;;;
44734;BME280;30462;52.446;-1.930;2023-03-22T04:49:18;98184.50781;;;;
44734;BME280;30462;52.446;-1.930;2023-03-22T04:50:18;98176.42188;;;;
44734;BME280;30462;52.446;-1.930;2023-03-22T04:51:18;98172.83594;;;;
44734;BME280;30462;52.446;-1.930;2023-03-22T04:52:18;98180.15234;;;;
44734;BME280;30462;52.446;-1.930;2023-03-22T04:53:18;98181.11328;;;;
44734;BME280;30462;52.446;-1.930;2023-03-22T04:54:18;98182.32031;;;;
44734;BME280;30462;52.446;-1.930;2023-03-22T04:55:18;98185.21484;;;;
44734;BME280;30462;52.446;-1.930;2023-03-22T04:56:18;98194.49609;;;;
44734;BME280;30462;52.446;-1.930;2023-03-22T04:57:18;98189.55859;;;;
44734;BME280;30462;52.446;-1.930;2023-03-22T04:58:18;98198.36328;;;;
44734;BME280;30462;52.446;-1.930;2023-03-22T04:59:18;98201.89453;;;;
44734;BME280;30462;52.446;-1.930;2023-03-22T05:00:18;98209.11719;;;;
44734;BME280;30462;52.446;-1.930;2023-03-22T05:01:18;98218.17969;;;;
44734;BME280;30462;52.446;-1.930;2023-03-22T05:02:18;98209.46484;;;;
44734;BME280;30462;52.446;-1.930;2023-03-22T05:03:18;98213.40234;;;;
44734;BME280;30462;52.446;-1.930;2023-03-22T05:04:19;98217.15625;;;;
44734;BME280;30462;52.446;-1.930;2023-03-22T05:05:18;98213.76563;;;;
44734;BME280;30462;52.446;-1.930;2023-03-22T05:06:18;98204.34766;;;;
44734;BME280;30462;52.446;-1.930;2023-03-22T05:07:18;98201.05469;;;;
44734;BME280;30462;52.446;-1.930;2023-03-22T05:08:18;98191.80859;;;;
44734;BME280;30462;52.446;-1.930;2023-03-22T05:09:18;98180.42578;;;;
44734;BME280;30462;52.446;-1.930;2023-03-22T05:10:18;98187.27734;;;;
44734;BME280;30462;52.446;-1.930;2023-03-22T05:11:18;98194.55469;;;;
44734;BME280;30462;52.446;-1.930;2023-03-22T05:12:18;98193.5625;;;;
44734;BME280;30462;52.446;-1.930;2023-03-22T05:13:18;98191.03516;;;;
44734;BME280;30462;52.446;-1.930;2023-03-22T05:14:18;98213.40625;;;;
44734;BME280;30462;52.446;-1.930;2023-03-22T05:15:18;98230.41406;;;;
44734;BME280;30462;52.446;-1.930;2023-03-22T05:16:18;98223.83203;;;;
44734;BME280;30462;52.446;-1.930;2023-03-22T05:17:18;98219.71875;;;;
44734;BME280;30462;52.446;-1.930;2023-03-22T05:18:20;98223.22266;;;;
44734;BME280;30462;52.446;-1.930;2023-03-22T05:19:18;98233.54688;;;;
44734;BME280;30462;52.446;-1.930;2023-03-22T05:20:17;98230.65625;;;;
44734;BME280;30462;52.446;-1.930;2023-03-22T05:21:19;98229.92188;;;;
44734;BME280;30462;52.446;-1.930;2023-03-22T05:22:18;98233.82031;;;;
44734;BME280;30462;52.446;-1.930;2023-03-22T05:23:18;98223.66797;;;;
44734;BME280;30462;52.446;-1.930;2023-03-22T05:24:18;98223.92969;;;;
44734;BME280;30462;52.446;-1.930;2023-03-22T05:25:18;98229.01563;;;;
44734;BME280;30462;52.446;-1.930;2023-03-22T05:26:18;98233.97656;;;;
44734;BME280;30462;52.446;-1.930;2023-03-22T05:27:17;98241.46875;;;;
44734;BME280;30462;52.446;-1.930;2023-03-22T05:28:19;98244.03906;;;;
44734;BME280;30462;52.446;-1.930;2023-03-22T05:29:18;98241.57422;;;;
44734;BME280;30462;52.446;-1.930;2023-03-22T05:30:18;98249.10547;;;;
44734;BME280;30462;52.446;-1.930;2023-03-22T05:31:18;98242.63281;;;;
44734;BME280;30462;52.446;-1.930;2023-03-22T05:32:18;98241.625;;;;
44734;BME280;30462;52.446;-1.930;2023-03-22T05:33:18;98242.94531;;;;
44734;BME280;30462;52.446;-1.930;2023-03-22T05:34:18;98236.59766;;;;
44734;BME280;30462;52.446;-1.930;2023-03-22T05:35:18;98241.91016;;;;
44734;BME280;30462;52.446;-1.930;2023-03-22T05:36:18;98226.37891;;;;
44734;BME280;30462;52.446;-1.930;2023-03-22T05:37:18;98242.26953;;;;
44734;BME280;30462;52.446;-1.930;2023-03-22T05:38:18;98247.06641;;;;
44734;BME280;30462;52.446;-1.930;2023-03-22T05:39:18;98241.29688;;;;
44734;BME280;30462;52.446;-1.930;2023-03-22T05:40:18;98249.10547;;;;
44734;BME280;30462;52.446;-1.930;2023-03-22T05:41:18;98252.70703;;;;
44734;BME280;30462;52.446;-1.930;2023-03-22T05:42:18;98244.85156;;;;
44734;BME280;30462;52.446;-1.930;2023-03-22T05:43:18;98255.99219;;;;
44734;BME280;30462;52.446;-1.930;2023-03-22T05:44:18;98257.40625;;;;
44734;BME280;30462;52.446;-1.930;2023-03-22T05:45:18;98257.12109;;;;
44734;BME280;30462;52.446;-1.930;2023-03-22T05:46:18;98257.01953;;;;
44734;BME280;30462;52.446;-1.930;2023-03-22T05:47:18;98254.9375;;;;
44734;BME280;30462;52.446;-1.930;2023-03-22T05:48:18;98251.68359;;;;
44734;BME280;30462;52.446;-1.930;2023-03-22T05:49:18;98260.08594;;;;
44734;BME280;30462;52.446;-1.930;2023-03-22T05:50:19;98255.64844;;;;
44734;BME280;30462;52.446;-1.930;2023-03-22T05:51:18;98257.35547;;;;
44734;BME280;30462;52.446;-1.930;2023-03-22T05:52:18;98254.85938;;;;
44734;BME280;30462;52.446;-1.930;2023-03-22T05:53:18;98260.08594;;;;
44734;BME280;30462;52.446;-1.930;2023-03-22T05:54:18;98256.95703;;;;
44734;BME280;30462;52.446;-1.930;2023-03-22T05:55:18;98258.50781;;;;
44734;BME280;30462;52.446;-1.930;2023-03-22T05:56:18;98246.87891;;;;
44734;BME280;30462;52.446;-1.930;2023-03-22T05:57:18;98256.60156;;;;
44734;BME280;30462;52.446;-1.930;2023-03-22T05:58:18;98258.14063;;;;
44734;BME280;30462;52.446;-1.930;2023-03-22T05:59:18;98263.39453;;;;
44734;BME280;30462;52.446;-1.930;2023-03-22T06:00:18;98266.10938;;;;
44734;BME280;30462;52.446;-1.930;2023-03-22T06:01:18;98273.55078;;;;
44734;BME280;30462;52.446;-1.930;2023-03-22T06:02:18;98269.91797;;;;
44734;BME280;30462;52.446;-1.930;2023-03-22T06:03:18;98269.39844;;;;
44734;BME280;30462;52.446;-1.930;2023-03-22T06:04:17;98267.41797;;;;
44734;BME280;30462;52.446;-1.930;2023-03-22T06:05:18;98262.74609;;;;
44734;BME280;30462;52.446;-1.930;2023-03-22T06:06:18;98267.23438;;;;
44734;BME280;30462;52.446;-1.930;2023-03-22T06:07:18;98275.42188;;;;
44734;BME280;30462;52.446;-1.930;2023-03-22T06:08:18;98263.22656;;;;
44734;BME280;30462;52.446;-1.930;2023-03-22T06:09:18;98279.12891;;;;
44734;BME280;30462;52.446;-1.930;2023-03-22T06:10:18;98274.62109;;;;
44734;BME280;30462;52.446;-1.930;2023-03-22T06:11:18;98266.11328;;;;
44734;BME280;30462;52.446;-1.930;2023-03-22T06:12:19;98279.23047;;;;
44734;BME280;30462;52.446;-1.930;2023-03-22T06:13:18;98270.82031;;;;
44734;BME280;30462;52.446;-1.930;2023-03-22T06:14:18;98265.20703;;;;
44734;BME280;30462;52.446;-1.930;2023-03-22T06:15:18;98273.96875;;;;
44734;BME280;30462;52.446;-1.930;2023-03-22T06:16:18;98275.72266;;;;
44734;BME280;30462;52.446;-1.930;2023-03-22T06:17:18;98280.96484;;;;
44734;BME280;30462;52.446;-1.930;2023-03-22T06:18:18;98283.86719;;;;